Terminal Aerodrome Forecast
Issued by NWS Upton, NY

Home | Current Version | Previous Version | Text Only | Print | Product List | Glossary On
Versions: 1 2 3 4 5 6 7 8 9 10 11 12 13 14 15 16 17 18 19 20 21 22 23 24 25 26 27
149
FTUS41 KOKX 250840 AAA
TAFEWR
TAF AMD
KEWR 250840Z 2509/2612 04004KT P6SM SKC
     FM251300 06003KT P6SM SKC
     FM251800 10007KT P6SM FEW250
     FM260400 10004KT 5SM BR SCT012 SCT250
     FM260600 08004KT 3SM BR BKN008=

USA.gov is the U.S. government's official web portal to all federal, state and local government web resources and services.